createdAt,value
2022-08-11T00:00:43.612Z,102105.13
2022-08-11T00:02:53.094Z,102106.03
2022-08-11T00:04:57.834Z,102109.53
2022-08-11T00:07:03.834Z,102106.03
2022-08-11T00:09:10.132Z,102105.13
2022-08-11T00:11:13.568Z,102102.59
2022-08-11T00:13:16.861Z,102105.19
2022-08-11T00:15:19.396Z,102103.50
2022-08-11T00:17:28.461Z,102100.88
2022-08-11T00:20:12.507Z,102103.56
2022-08-11T00:22:04.574Z,102105.31
2022-08-11T00:24:08.919Z,102102.72
2022-08-11T00:26:12.444Z,102116.78
2022-08-11T00:28:24.467Z,102114.19
2022-08-11T00:30:40.036Z,102115.03
2022-08-11T00:32:45.487Z,102122.13
2022-08-11T00:34:48.195Z,102118.66
2022-08-11T00:36:57.906Z,102122.16
2022-08-11T00:39:05.352Z,102124.84
2022-08-11T00:41:29.362Z,102115.19
2022-08-11T00:43:50.210Z,102115.25
2022-08-11T00:46:23.505Z,102120.53
2022-08-11T00:49:16.184Z,102118.78
2022-08-11T00:52:06.811Z,102110.97
2022-08-11T00:54:53.631Z,102107.47
2022-08-11T00:57:37.021Z,102110.97
2022-08-11T01:00:22.943Z,102104.06
2022-08-11T01:03:04.137Z,102099.69
2022-08-11T01:05:33.680Z,102095.34
2022-08-11T01:08:02.529Z,102095.34
2022-08-11T01:10:14.642Z,102095.31
2022-08-11T01:12:45.946Z,102093.59
2022-08-11T01:15:15.839Z,102090.13
2022-08-11T01:17:26.815Z,102098.91
2022-08-11T01:20:46.415Z,102091.03
2022-08-11T01:23:24.967Z,102087.53
2022-08-11T01:25:57.699Z,102088.41
2022-08-11T01:28:15.322Z,102091.97
2022-08-11T01:30:44.743Z,102085.88
2022-08-11T01:33:24.082Z,102088.47
2022-08-11T01:35:53.595Z,102082.38
2022-08-11T01:38:36.595Z,102087.63
2022-08-11T01:40:41.298Z,102080.59
2022-08-11T01:43:43.739Z,102073.63
2022-08-11T01:46:08.642Z,102079.78
2022-08-11T01:48:41.075Z,102071.91
2022-08-11T01:51:17.513Z,102068.47
2022-08-11T01:53:40.044Z,102066.69
2022-08-11T01:56:09.189Z,102072.81
2022-08-11T01:58:20.680Z,102077.25
2022-08-11T02:01:01.650Z,102070.25
2022-08-11T02:03:37.810Z,102075.50
2022-08-11T02:06:30.411Z,102071.09
2022-08-11T02:08:56.157Z,102068.47
2022-08-11T02:11:28.068Z,102064.16
2022-08-11T02:13:42.541Z,102060.69
2022-08-11T02:15:52.032Z,102057.19
2022-08-11T02:18:24.456Z,102072.91
2022-08-11T02:21:05.074Z,102065.09
2022-08-11T02:24:04.489Z,102070.31
2022-08-11T02:26:14.857Z,102075.59
2022-08-11T02:28:16.787Z,102065.97
2022-08-11T02:30:25.992Z,102066.84
2022-08-11T02:33:16.593Z,102058.97
2022-08-11T02:35:29.290Z,102059.91
2022-08-11T02:37:31.417Z,102064.25
2022-08-11T02:39:47.534Z,102059.88
2022-08-11T02:42:33.443Z,102054.66
2022-08-11T02:45:20.128Z,102061.59
2022-08-11T02:48:10.516Z,102059.88
2022-08-11T02:50:27.984Z,102061.66
2022-08-11T02:52:51.754Z,102063.34
2022-08-11T02:55:12.204Z,102064.22
2022-08-11T02:57:43.590Z,102059.88
2022-08-11T03:00:01.030Z,102061.63
2022-08-11T03:02:43.376Z,102062.50
2022-08-11T03:05:17.262Z,102060.78
2022-08-11T03:07:33.847Z,102060.75
2022-08-11T03:09:38.976Z,102049.41
2022-08-11T03:12:43.794Z,102053.78
2022-08-11T03:15:13.554Z,102052.06
2022-08-11T03:17:54.190Z,102052.94
2022-08-11T03:20:08.310Z,102055.56
2022-08-11T03:22:17.791Z,102051.19
2022-08-11T03:24:29.611Z,102059.09
2022-08-11T03:26:34.460Z,102059.09
2022-08-11T03:28:53.804Z,102054.72
2022-08-11T03:31:27.137Z,102053.84
2022-08-11T03:33:53.876Z,102057.34
2022-08-11T03:36:27.360Z,102052.97
2022-08-11T03:38:44.847Z,102053.03
2022-08-11T03:42:04.418Z,102055.63
2022-08-11T03:44:17.803Z,102052.16
2022-08-11T03:46:48.397Z,102053.91
2022-08-11T03:49:15.456Z,102048.63
2022-08-11T03:51:27.538Z,102046.91
2022-08-11T03:54:24.294Z,102046.03
2022-08-11T03:57:03.581Z,102040.81
2022-08-11T03:59:17.424Z,102040.81
2022-08-11T04:01:29.714Z,102037.31
2022-08-11T04:04:08.849Z,102033.84
2022-08-11T04:06:34.476Z,102035.56
2022-08-11T04:09:13.516Z,102034.72
2022-08-11T04:11:31.488Z,102026.00
2022-08-11T04:13:33.274Z,102027.75
2022-08-11T04:16:11.992Z,102026.88
2022-08-11T04:18:23.527Z,102021.66
2022-08-11T04:20:44.478Z,102019.88
2022-08-11T04:23:07.816Z,102019.00
2022-08-11T04:25:16.335Z,102022.47
2022-08-11T04:27:23.735Z,102019.00
2022-08-11T04:30:03.518Z,102027.72
2022-08-11T04:32:21.494Z,102026.00
2022-08-11T04:34:44.657Z,102028.56
2022-08-11T04:37:27.021Z,102025.09
2022-08-11T04:39:49.663Z,102019.88
2022-08-11T04:42:31.517Z,102019.00
2022-08-11T04:45:14.974Z,102016.38
2022-08-11T04:48:04.231Z,102017.25
2022-08-11T04:50:42.098Z,102022.50
2022-08-11T04:53:21.055Z,102020.75
2022-08-11T04:56:23.209Z,102023.38
2022-08-11T04:59:02.207Z,102012.91
2022-08-11T05:01:42.750Z,102018.13
2022-08-11T05:04:40.344Z,102006.81
2022-08-11T05:07:11.286Z,102021.59
2022-08-11T05:09:24.755Z,102019.00
2022-08-11T05:12:04.302Z,102018.16
2022-08-11T05:14:30.321Z,102018.16
2022-08-11T05:17:00.094Z,102018.13
2022-08-11T05:19:22.809Z,102022.50
2022-08-11T05:21:45.055Z,102034.72
2022-08-11T05:24:11.545Z,102030.34
2022-08-11T05:26:46.632Z,102031.22
2022-08-11T05:29:19.737Z,102027.72
2022-08-11T05:31:51.009Z,102030.34
2022-08-11T05:34:18.371Z,102039.06
2022-08-11T05:36:37.486Z,102041.66
2022-08-11T05:38:58.735Z,102044.28
2022-08-11T05:41:20.113Z,102038.19
2022-08-11T05:44:20.056Z,102034.72
2022-08-11T05:46:25.163Z,102045.16
2022-08-11T05:48:52.494Z,102042.53
2022-08-11T05:51:16.457Z,102040.81
2022-08-11T05:53:46.266Z,102048.66
2022-08-11T05:56:10.399Z,102052.13
2022-08-11T05:58:13.561Z,102046.91
2022-08-11T06:00:15.805Z,102047.75
2022-08-11T06:02:18.230Z,102045.16
2022-08-11T06:04:24.619Z,102043.41
2022-08-11T06:06:29.262Z,102045.16
2022-08-11T06:08:37.010Z,102046.03
2022-08-11T06:10:41.493Z,102049.53
2022-08-11T06:12:43.608Z,102046.91
2022-08-11T06:14:46.535Z,102053.88
2022-08-11T06:16:50.271Z,102049.50
2022-08-11T06:18:52.285Z,102060.00
2022-08-11T06:20:58.310Z,102053.88
2022-08-11T06:23:03.875Z,102057.38
2022-08-11T06:25:12.537Z,102053.88
2022-08-11T06:27:21.326Z,102049.50
2022-08-11T06:29:37.980Z,102048.63
2022-08-11T06:31:59.648Z,102041.66
2022-08-11T06:34:41.140Z,102046.03
2022-08-11T06:37:00.891Z,102047.78
2022-08-11T06:39:26.739Z,102045.16
2022-08-11T06:41:44.620Z,102045.16
2022-08-11T06:44:14.454Z,102036.44
2022-08-11T06:46:24.753Z,102041.69
2022-08-11T06:48:33.739Z,102042.53
2022-08-11T06:50:54.879Z,102037.31
2022-08-11T06:52:58.143Z,102030.34
2022-08-11T06:55:55.818Z,102040.84
2022-08-11T06:57:54.187Z,102039.06
2022-08-11T07:00:15.453Z,102036.44
2022-08-11T07:02:22.504Z,102039.94
2022-08-11T07:04:43.325Z,102032.09
2022-08-11T07:07:23.868Z,102037.28
2022-08-11T07:09:43.797Z,102043.41
2022-08-11T07:12:21.141Z,102046.03
2022-08-11T07:14:46.545Z,102033.81
2022-08-11T07:16:51.801Z,102044.28
2022-08-11T07:19:17.836Z,102042.53
2022-08-11T07:22:02.868Z,102039.88
2022-08-11T07:24:34.497Z,102039.91
2022-08-11T07:27:14.314Z,102041.59
2022-08-11T07:29:16.666Z,102042.50
2022-08-11T07:31:42.640Z,102035.50
2022-08-11T07:34:05.566Z,102046.84
2022-08-11T07:36:13.943Z,102043.31
2022-08-11T07:38:25.340Z,102042.44
2022-08-11T07:40:29.046Z,102046.78
2022-08-11T07:42:36.422Z,102043.31
2022-08-11T07:44:59.897Z,102047.63
2022-08-11T07:47:21.055Z,102047.63
2022-08-11T07:49:41.242Z,102037.97
2022-08-11T07:52:02.689Z,102045.84
2022-08-11T07:54:16.294Z,102038.81
2022-08-11T07:56:28.112Z,102046.72
2022-08-11T07:59:06.260Z,102052.75
2022-08-11T08:01:30.499Z,102054.44
2022-08-11T08:03:54.800Z,102047.47
2022-08-11T08:06:35.658Z,102042.16
2022-08-11T08:09:00.723Z,102043.00
2022-08-11T08:11:27.568Z,102040.38
2022-08-11T08:13:51.203Z,102047.28
2022-08-11T08:16:12.435Z,102042.88
2022-08-11T08:18:26.814Z,102041.16
2022-08-11T08:20:34.599Z,102042.03
2022-08-11T08:22:39.505Z,102044.59
2022-08-11T08:24:43.003Z,102047.19
2022-08-11T08:27:03.811Z,102045.38
2022-08-11T08:29:25.906Z,102050.59
2022-08-11T08:31:27.835Z,102044.44
2022-08-11T08:33:32.170Z,102050.50
2022-08-11T08:35:36.742Z,102043.47
2022-08-11T08:37:58.101Z,102037.28
2022-08-11T08:40:00.237Z,102032.84
2022-08-11T08:42:07.186Z,102040.66
2022-08-11T08:44:37.324Z,102038.00
2022-08-11T08:46:42.703Z,102038.81
2022-08-11T08:48:47.195Z,102041.38
2022-08-11T08:51:12.573Z,102042.22
2022-08-11T08:53:18.355Z,102038.63
2022-08-11T08:55:21.491Z,102029.84
2022-08-11T08:57:24.337Z,102035.88
2022-08-11T08:59:47.971Z,102023.56
2022-08-11T09:02:01.606Z,102029.59
2022-08-11T09:04:11.749Z,102032.13
2022-08-11T09:06:17.324Z,102029.34
2022-08-11T09:08:19.535Z,102020.59
2022-08-11T09:10:21.722Z,102013.44
2022-08-11T09:12:36.039Z,102008.16
2022-08-11T09:15:11.118Z,102007.06
2022-08-11T09:17:14.150Z,102018.34
2022-08-11T09:19:18.168Z,102014.66
2022-08-11T09:21:49.286Z,102019.81
2022-08-11T09:24:10.107Z,102013.50
2022-08-11T09:26:35.496Z,102010.72
2022-08-11T09:28:37.640Z,102009.56
2022-08-11T09:30:42.806Z,102011.13
2022-08-11T09:32:44.722Z,102010.09
2022-08-11T09:34:47.441Z,102009.00
2022-08-11T09:37:09.282Z,102004.38
2022-08-11T09:39:31.612Z,101998.88
2022-08-11T09:42:01.217Z,101996.84
2022-08-11T09:44:15.633Z,102000.91
2022-08-11T09:46:27.393Z,101999.66
2022-08-11T09:48:45.872Z,102000.25
2022-08-11T09:50:56.058Z,101999.06
2022-08-11T09:53:34.818Z,101992.59
2022-08-11T09:55:20.186Z,101989.50
2022-08-11T09:57:41.506Z,101985.59
2022-08-11T09:59:43.382Z,101979.03
2022-08-11T10:01:52.495Z,101979.50
2022-08-11T10:04:01.834Z,101971.09
2022-08-11T10:06:34.101Z,101964.53
2022-08-11T10:08:39.852Z,101971.03
2022-08-11T10:10:42.106Z,101962.81
2022-08-11T10:12:56.507Z,101965.16
2022-08-11T10:15:22.908Z,101952.31
2022-08-11T10:17:25.089Z,101959.59
2022-08-11T10:19:27.448Z,101954.81
2022-08-11T10:21:39.670Z,101955.16
2022-08-11T10:24:05.559Z,101946.75
2022-08-11T10:26:26.733Z,101953.09
2022-08-11T10:28:50.090Z,101946.56
2022-08-11T10:31:17.786Z,101952.47
2022-08-11T10:33:45.717Z,101949.38
2022-08-11T10:36:01.976Z,101948.88
2022-08-11T10:38:08.911Z,101943.00
2022-08-11T10:40:18.388Z,101939.84
2022-08-11T10:42:57.284Z,101931.47
2022-08-11T10:45:04.233Z,101939.03
2022-08-11T10:47:25.784Z,101936.78
2022-08-11T10:49:28.177Z,101938.88
2022-08-11T10:51:52.086Z,101932.81
2022-08-11T10:54:14.326Z,101935.91
2022-08-11T10:56:36.856Z,101930.09
2022-08-11T10:58:49.227Z,101929.63
2022-08-11T11:00:56.990Z,101924.47
2022-08-11T11:03:23.376Z,101920.34
2022-08-11T11:05:30.714Z,101920.97
2022-08-11T11:07:48.462Z,101920.44
2022-08-11T11:10:01.757Z,101922.47
2022-08-11T11:12:25.121Z,101913.28
2022-08-11T11:14:58.307Z,101918.53
2022-08-11T11:17:14.342Z,101925.06
2022-08-11T11:19:20.886Z,101923.75
2022-08-11T11:21:25.143Z,101919.09
2022-08-11T11:23:48.755Z,101920.38
2022-08-11T11:26:14.965Z,101915.88
2022-08-11T11:28:35.092Z,101902.13
2022-08-11T11:31:11.652Z,101913.09
2022-08-11T11:34:06.580Z,101901.50
2022-08-11T11:36:17.313Z,101905.03
2022-08-11T11:38:19.473Z,101902.44
2022-08-11T11:40:28.678Z,101904.44
2022-08-11T11:42:33.834Z,101888.56
2022-08-11T11:44:38.226Z,101900.38
2022-08-11T11:46:41.613Z,101898.34
2022-08-11T11:48:43.914Z,101897.69
2022-08-11T11:50:45.881Z,101892.19
2022-08-11T11:52:47.727Z,101897.84
2022-08-11T11:54:53.445Z,101893.97
2022-08-11T11:56:57.659Z,101880.47
2022-08-11T11:59:18.274Z,101886.09
2022-08-11T12:01:24.214Z,101891.22
2022-08-11T12:03:26.833Z,101884.63
2022-08-11T12:05:29.001Z,101884.09
2022-08-11T12:07:56.996Z,101878.97
2022-08-11T12:10:12.514Z,101869.34
2022-08-11T12:12:34.953Z,101866.09
2022-08-11T12:14:37.299Z,101868.94
2022-08-11T12:16:44.680Z,101858.69
2022-08-11T12:18:49.581Z,101866.88
2022-08-11T12:20:53.906Z,101854.63
2022-08-11T12:23:16.220Z,101860.63
2022-08-11T12:25:39.854Z,101849.50
2022-08-11T12:27:42.336Z,101843.38
2022-08-11T12:29:50.110Z,101847.63
2022-08-11T12:31:58.756Z,101842.06
2022-08-11T12:34:09.220Z,101847.41
2022-08-11T12:36:15.939Z,101838.16
2022-08-11T12:38:26.063Z,101840.06
2022-08-11T12:41:15.153Z,101837.78
2022-08-11T12:43:40.821Z,101835.50
2022-08-11T12:45:44.127Z,101833.13
2022-08-11T12:48:59.109Z,101826.94
2022-08-11T12:50:52.590Z,101821.78
2022-08-11T12:52:57.109Z,101813.56
2022-08-11T12:55:14.101Z,101812.25
2022-08-11T12:57:47.621Z,101815.88
2022-08-11T13:00:08.816Z,101815.81
2022-08-11T13:02:35.708Z,101810.56
2022-08-11T13:04:56.243Z,101799.59
2022-08-11T13:06:59.109Z,101797.31
2022-08-11T13:09:01.656Z,101801.22
2022-08-11T13:11:23.263Z,101805.25
2022-08-11T13:13:52.935Z,101801.81
2022-08-11T13:15:49.971Z,101796.63
2022-08-11T13:17:54.118Z,101794.91
2022-08-11T13:19:58.838Z,101791.84
2022-08-11T13:22:02.556Z,101786.69
2022-08-11T13:24:04.748Z,101790.81
2022-08-11T13:26:08.973Z,101784.53
2022-08-11T13:28:12.724Z,101785.53
2022-08-11T13:30:40.310Z,101781.06
2022-08-11T13:32:45.842Z,101776.72
2022-08-11T13:34:48.253Z,101768.91
2022-08-11T13:36:55.331Z,101776.13
2022-08-11T13:39:01.123Z,101781.69
2022-08-11T13:41:23.191Z,101775.03
2022-08-11T13:43:25.701Z,101777.88
2022-08-11T13:45:28.111Z,101763.53
2022-08-11T13:47:30.381Z,101765.03
2022-08-11T13:49:35.678Z,101765.66
2022-08-11T13:51:41.149Z,101765.09
2022-08-11T13:53:43.800Z,101770.94
2022-08-11T13:55:51.463Z,101771.25
2022-08-11T13:58:09.072Z,101770.72
2022-08-11T14:00:25.094Z,101768.59
2022-08-11T14:02:31.104Z,101770.00
2022-08-11T14:04:43.876Z,101766.81
2022-08-11T14:06:51.103Z,101773.47
2022-08-11T14:08:55.137Z,101770.88
2022-08-11T14:12:21.618Z,101765.34
2022-08-11T14:13:48.072Z,101766.22
2022-08-11T14:15:50.759Z,101759.75
2022-08-11T14:17:57.254Z,101766.31
2022-08-11T14:20:38.677Z,101763.50
2022-08-11T14:22:28.035Z,101768.34
2022-08-11T14:24:30.241Z,101759.09
2022-08-11T14:26:39.117Z,101755.56
2022-08-11T14:28:45.127Z,101753.09
2022-08-11T14:31:00.462Z,101756.75
2022-08-11T14:33:17.356Z,101754.06
2022-08-11T14:35:22.545Z,101753.91
2022-08-11T14:37:27.810Z,101752.44
2022-08-11T14:39:36.007Z,101756.09
2022-08-11T14:42:09.963Z,101754.00
2022-08-11T14:44:33.980Z,101745.97
2022-08-11T14:46:55.589Z,101742.63
2022-08-11T14:48:58.062Z,101740.69
2022-08-11T14:51:00.020Z,101737.88
2022-08-11T14:53:11.290Z,101743.59
2022-08-11T14:55:41.297Z,101738.19
2022-08-11T14:58:04.695Z,101738.09
2022-08-11T15:00:09.050Z,101727.22
2022-08-11T15:02:31.349Z,101733.88
2022-08-11T15:04:36.533Z,101727.63
2022-08-11T15:06:40.550Z,101735.84
2022-08-11T15:08:54.826Z,101736.13
2022-08-11T15:10:56.605Z,101728.28
2022-08-11T15:13:00.426Z,101729.69
2022-08-11T15:15:25.145Z,101734.53
2022-08-11T15:17:29.457Z,101733.63
2022-08-11T15:20:05.251Z,101728.72
2022-08-11T15:22:28.005Z,101733.19
2022-08-11T15:24:31.102Z,101736.41
2022-08-11T15:26:58.870Z,101720.69
2022-08-11T15:29:23.080Z,101726.38
2022-08-11T15:31:49.432Z,101720.91
2022-08-11T15:34:14.608Z,101715.22
2022-08-11T15:36:39.771Z,101720.94
2022-08-11T15:38:54.990Z,101723.13
2022-08-11T15:41:16.867Z,101715.16
2022-08-11T15:43:44.797Z,101725.09
2022-08-11T15:45:52.090Z,101718.19
2022-08-11T15:48:05.567Z,101718.34
2022-08-11T15:50:14.113Z,101719.75
2022-08-11T15:52:23.111Z,101720.25
2022-08-11T15:54:31.216Z,101721.66
2022-08-11T15:56:35.365Z,101716.66
2022-08-11T15:59:40.897Z,101711.72
2022-08-11T16:01:44.262Z,101715.31
2022-08-11T16:04:12.603Z,101707.59
2022-08-11T16:06:14.712Z,101713.97
2022-08-11T16:08:29.527Z,101697.66
2022-08-11T16:10:36.537Z,101703.94
2022-08-11T16:13:06.023Z,101703.00
2022-08-11T16:15:34.181Z,101703.97
2022-08-11T16:17:41.656Z,101702.63
2022-08-11T16:19:46.004Z,101697.09
2022-08-11T16:21:50.790Z,101705.34
2022-08-11T16:23:55.465Z,101700.38
2022-08-11T16:27:07.218Z,101703.31
2022-08-11T16:28:22.619Z,101705.41
2022-08-11T16:30:26.072Z,101708.91
2022-08-11T16:32:28.589Z,101706.91
2022-08-11T16:34:49.794Z,101699.16
2022-08-11T16:37:10.103Z,101695.63
2022-08-11T16:39:13.665Z,101697.00
2022-08-11T16:41:41.359Z,101697.09
2022-08-11T16:44:07.812Z,101697.63
2022-08-11T16:46:31.330Z,101700.47
2022-08-11T16:48:38.618Z,101696.19
2022-08-11T16:50:42.107Z,101696.06
2022-08-11T16:52:43.938Z,101691.97
2022-08-11T16:54:47.780Z,101691.78
2022-08-11T16:56:52.016Z,101686.56
2022-08-11T16:59:17.136Z,101693.31
2022-08-11T17:01:21.694Z,101690.16
2022-08-11T17:03:42.336Z,101693.94
2022-08-11T17:06:08.805Z,101690.28
2022-08-11T17:08:29.186Z,101689.22
2022-08-11T17:10:56.677Z,101684.75
2022-08-11T17:13:09.414Z,101681.13
2022-08-11T17:15:38.350Z,101680.97
2022-08-11T17:17:41.094Z,101679.50
2022-08-11T17:20:41.623Z,101677.09
2022-08-11T17:22:29.881Z,101671.63
2022-08-11T17:24:37.238Z,101673.97
2022-08-11T17:26:55.760Z,101673.53
2022-08-11T17:29:01.140Z,101675.34
2022-08-11T17:31:23.065Z,101675.03
2022-08-11T17:33:43.916Z,101671.50
2022-08-11T17:35:45.740Z,101674.84
2022-08-11T17:37:49.160Z,101672.59
2022-08-11T17:39:53.605Z,101666.00
2022-08-11T17:42:15.064Z,101665.72
2022-08-11T17:44:35.591Z,101663.66
2022-08-11T17:47:01.075Z,101661.41
2022-08-11T17:49:10.220Z,101668.69
2022-08-11T17:51:34.541Z,101668.53
2022-08-11T17:54:10.045Z,101671.19
2022-08-11T17:56:44.237Z,101667.44
2022-08-11T17:59:07.289Z,101671.47
2022-08-11T18:01:11.403Z,101666.31
2022-08-11T18:03:29.767Z,101659.50
2022-08-11T18:05:34.624Z,101662.78
2022-08-11T18:07:56.843Z,101670.47
2022-08-11T18:10:17.430Z,101665.28
2022-08-11T18:12:37.859Z,101670.09
2022-08-11T18:14:58.778Z,101664.72
2022-08-11T18:17:19.300Z,101673.63
2022-08-11T18:19:39.240Z,101661.84
2022-08-11T18:22:14.338Z,101663.06
2022-08-11T18:24:38.951Z,101671.19
2022-08-11T18:27:03.246Z,101669.03
2022-08-11T18:29:25.914Z,101669.53
2022-08-11T18:31:46.826Z,101667.41
2022-08-11T18:34:16.355Z,101680.47
2022-08-11T18:36:42.431Z,101682.88
2022-08-11T18:39:06.701Z,101686.66
2022-08-11T18:41:29.607Z,101689.91
2022-08-11T18:43:53.533Z,101692.41
2022-08-11T18:46:20.125Z,101690.22
2022-08-11T18:48:42.603Z,101688.72
2022-08-11T18:51:29.989Z,101700.44
2022-08-11T18:53:47.531Z,101699.97
2022-08-11T18:56:08.515Z,101696.47
2022-08-11T18:58:33.339Z,101701.34
2022-08-11T19:00:56.414Z,101708.72
2022-08-11T19:03:18.643Z,101705.38
2022-08-11T19:06:32.026Z,101713.78
2022-08-11T19:08:22.938Z,101716.09
2022-08-11T19:10:43.972Z,101712.88
2022-08-11T19:13:06.611Z,101712.53
2022-08-11T19:15:31.707Z,101711.47
2022-08-11T19:17:54.804Z,101712.22
2022-08-11T19:20:17.362Z,101723.94
2022-08-11T19:22:40.052Z,101721.34
2022-08-11T19:25:10.379Z,101728.72
2022-08-11T19:27:32.758Z,101729.56
2022-08-11T19:30:07.785Z,101725.25
2022-08-11T19:32:35.728Z,101723.63
2022-08-11T19:34:57.522Z,101730.63
2022-08-11T19:37:24.067Z,101728.31
2022-08-11T19:39:47.375Z,101725.69
2022-08-11T19:42:08.743Z,101732.03
2022-08-11T19:44:30.858Z,101733.84
2022-08-11T19:46:55.016Z,101737.66
2022-08-11T19:49:18.039Z,101747.03
2022-08-11T19:51:39.291Z,101744.44
2022-08-11T19:54:00.964Z,101746.16
2022-08-11T19:56:22.243Z,101752.59
2022-08-11T19:58:43.843Z,101751.72
2022-08-11T20:01:05.162Z,101755.69
2022-08-11T20:03:28.834Z,101751.25
2022-08-11T20:05:59.775Z,101762.88
2022-08-11T20:08:21.187Z,101759.34
2022-08-11T20:10:43.478Z,101763.50
2022-08-11T20:13:04.974Z,101764.56
2022-08-11T20:15:31.967Z,101767.09
2022-08-11T20:17:56.682Z,101764.13
2022-08-11T20:20:22.124Z,101765.63
2022-08-11T20:22:45.564Z,101764.69
2022-08-11T20:25:11.219Z,101772.00
2022-08-11T20:27:33.284Z,101769.72
2022-08-11T20:29:55.110Z,101774.84
2022-08-11T20:32:17.112Z,101767.94
2022-08-11T20:34:38.782Z,101767.13
2022-08-11T20:37:00.229Z,101766.31
2022-08-11T20:39:22.270Z,101773.63
2022-08-11T20:41:58.967Z,101776.97
2022-08-11T20:44:21.715Z,101776.16
2022-08-11T20:46:43.952Z,101779.72
2022-08-11T20:49:05.108Z,101781.31
2022-08-11T20:51:26.086Z,101787.56
2022-08-11T20:53:47.471Z,101782.31
2022-08-11T20:56:08.881Z,101785.94
2022-08-11T20:58:49.128Z,101788.81
2022-08-11T21:01:20.290Z,101789.72
2022-08-11T21:03:54.765Z,101792.59
2022-08-11T21:06:31.636Z,101791.91
2022-08-11T21:08:55.833Z,101787.59
2022-08-11T21:13:58.398Z,101793.97
2022-08-11T21:16:25.359Z,101796.72
2022-08-11T21:18:51.046Z,101794.47
2022-08-11T21:21:16.407Z,101796.16
2022-08-11T21:23:37.537Z,101794.69
2022-08-11T21:26:04.492Z,101798.44
2022-08-11T21:28:28.515Z,101793.28
2022-08-11T21:30:49.942Z,101795.31
2022-08-11T21:33:11.717Z,101803.34
2022-08-11T21:35:35.861Z,101807.84
2022-08-11T21:38:07.376Z,101801.84
2022-08-11T21:40:30.037Z,101800.97
2022-08-11T21:42:55.330Z,101803.66
2022-08-11T21:45:19.571Z,101808.97
2022-08-11T21:47:44.302Z,101810.84
2022-08-11T21:50:06.174Z,101807.38
2022-08-11T21:52:27.038Z,101808.22
2022-08-11T21:54:47.499Z,101809.13
2022-08-11T21:57:09.019Z,101812.22
2022-08-11T21:59:31.398Z,101814.94
2022-08-11T22:01:51.915Z,101820.47
2022-08-11T22:04:14.415Z,101813.44
2022-08-11T22:06:35.864Z,101809.97
2022-08-11T22:08:56.497Z,101815.47
2022-08-11T22:11:16.956Z,101818.03
2022-08-11T22:14:07.014Z,101816.31
2022-08-11T22:16:29.059Z,101823.47
2022-08-11T22:18:53.608Z,101818.34
2022-08-11T22:21:56.830Z,101811.38
2022-08-11T22:23:59.193Z,101813.91
2022-08-11T22:26:20.836Z,101808.66
2022-08-11T22:28:43.028Z,101813.13
2022-08-11T22:31:03.516Z,101807.97
2022-08-11T22:33:28.754Z,101808.94
2022-08-11T22:35:50.664Z,101810.69
2022-08-11T22:38:11.629Z,101809.81
2022-08-11T22:40:33.040Z,101805.56
2022-08-11T22:42:53.631Z,101811.13
2022-08-11T22:45:14.677Z,101814.47
2022-08-11T22:47:40.558Z,101811.84
2022-08-11T22:50:01.668Z,101814.72
2022-08-11T22:52:22.275Z,101814.72
2022-08-11T22:54:43.399Z,101822.63
2022-08-11T22:57:03.981Z,101828.03
2022-08-11T22:59:25.930Z,101816.59
2022-08-11T23:01:55.339Z,101821.13
2022-08-11T23:04:19.762Z,101816.91
2022-08-11T23:06:41.045Z,101821.25
2022-08-11T23:09:01.808Z,101813.38
2022-08-11T23:11:23.221Z,101819.59
2022-08-11T23:13:44.907Z,101822.22
2022-08-11T23:16:05.422Z,101823.19
2022-08-11T23:18:26.247Z,101829.34
2022-08-11T23:20:55.102Z,101825.09
2022-08-11T23:23:16.397Z,101828.63
2022-08-11T23:25:36.767Z,101833.97
2022-08-11T23:27:57.612Z,101832.53
2022-08-11T23:30:19.881Z,101837.69
2022-08-11T23:32:44.506Z,101834.13
2022-08-11T23:35:39.884Z,101838.50
2022-08-11T23:37:55.617Z,101838.63
2022-08-11T23:40:20.440Z,101836.84
2022-08-11T23:42:43.430Z,101837.81
2022-08-11T23:45:18.474Z,101834.31
2022-08-11T23:47:50.105Z,101829.13
2022-08-11T23:50:11.352Z,101824.84
2022-08-11T23:52:37.566Z,101824.00
2022-08-11T23:54:58.779Z,101820.69
2022-08-11T23:57:18.971Z,101815.47
2022-08-11T23:59:39.583Z,101822.50
